X  Fechar Metar - Info de Aeroporto     EHEH Eindhoven Airport
Temperatura
14°C Temperatura
11°C Ptº Orvalho
82% Humidade



Vento
2 KM/H
1 MPH
0 M/S
1 NÓS



170°
S
Condições Atuais

Muito Nublado Muito Nublado
Pressão 1010.84 (hPa) - 29.85 (inHg)
Visibilidade 6 (milha) - 9.7 (km)
Aeroporto
Código-Aeropoto EHEH

Localização: Eindhoven Airport
Distância: 10 (km)

Metar:
EHEH 132225Z AUTO 17001KT 9999 BKN063 BKN073 OVC082 14/11 Q1011 BLU

Hora: 14-06-2024 00:25 CEST